Dubois, Wyoming
Current Conditions -  °F | °C
As of 8:35 AM on Monday 22 Dec 2014 (Local Time) from KPNA Reporting Station
Light Snow Light Snow  
Wind Chill: -7°   Ceiling: 1700
Heat Index: -7°   Visibility: 1.7mi
Dew Point: -7°   Wind: 3mph
Humidity: 100%   Direction: 330°NNW
Pressure: 29.83"   Gusts: NA
Location:  43.53°N, 109.63°W
Report Text: KPNA 221535Z AUTO 33003KT 1 3/4SM -SN OVC017 M07/M07 A2983 RMK AO2
Loading
Personal Weather Stations






























Interactive Weather Map New forecast layout! Learn more

10-Day Weather Forecast

Advertisements
Track Severe Weather on mobile